SWR5CB EDDB-LSZH
Flight info
| Callsign | SWR5CB |
|---|---|
| Flight time | 1h 4m |
| Altitude | 35000 |
| Route | KISUC1A KISUC Z117 ORTAG DCT BAMKI/N0452F340 DCT AMOSA N869 TEDGO/N0452F350 T724 RILAX |
| Aircraft | A21N/M-SDE2E3FGHIRWXY/LB1 |
Departure
| Time | 2026-05-04 12:57 |
|---|---|
| Airport | Berlin Brandenburg Airport (EDDB) |
Arrival
| Time | 2026-05-04 14:01 |
|---|---|
| Airport | Zürich Airport (LSZH) |
| Time | Latitude | Longitude | Altitude | Speed | Heading |
|---|---|---|---|---|---|
| 2026-05-04 12:14 | 52.36503 | 13.50512 | 160 ft | 0 kts | 69° |
| 2026-05-04 12:45 | 52.36502 | 13.50509 | 160 ft | 2 kts | 69° |
| 2026-05-04 12:46 | 52.36493 | 13.50470 | 160 ft | 4 kts | 69° |
| 2026-05-04 12:46 | 52.36483 | 13.50429 | 160 ft | 4 kts | 68° |
| 2026-05-04 12:46 | 52.36473 | 13.50389 | 160 ft | 3 kts | 68° |
| 2026-05-04 12:46 | 52.36464 | 13.50356 | 160 ft | 4 kts | 53° |
| 2026-05-04 12:47 | 52.36446 | 13.50330 | 160 ft | 4 kts | 14° |
| 2026-05-04 12:47 | 52.36426 | 13.50331 | 160 ft | 2 kts | 339° |
| 2026-05-04 12:52 | 52.36427 | 13.50331 | 160 ft | 1 kts | 339° |
| 2026-05-04 12:52 | 52.36445 | 13.50319 | 160 ft | 5 kts | 339° |
| 2026-05-04 12:53 | 52.36498 | 13.50286 | 160 ft | 11 kts | 338° |
| 2026-05-04 12:53 | 52.36591 | 13.50225 | 160 ft | 17 kts | 339° |
| 2026-05-04 12:53 | 52.36717 | 13.50165 | 160 ft | 20 kts | 11° |
| 2026-05-04 12:53 | 52.36839 | 13.50215 | 160 ft | 17 kts | 50° |
| 2026-05-04 12:54 | 52.36887 | 13.50400 | 160 ft | 18 kts | 68° |
| 2026-05-04 12:54 | 52.36939 | 13.50620 | 160 ft | 24 kts | 69° |
| 2026-05-04 12:54 | 52.37003 | 13.50887 | 160 ft | 26 kts | 69° |
| 2026-05-04 12:54 | 52.37070 | 13.51170 | 160 ft | 27 kts | 69° |
| 2026-05-04 12:55 | 52.37141 | 13.51467 | 160 ft | 29 kts | 69° |
| 2026-05-04 12:55 | 52.37215 | 13.51777 | 160 ft | 30 kts | 69° |
| 2026-05-04 12:55 | 52.37267 | 13.52000 | 160 ft | 11 kts | 64° |
| 2026-05-04 12:55 | 52.37338 | 13.52038 | 160 ft | 13 kts | 341° |
| 2026-05-04 12:56 | 52.37415 | 13.51946 | 160 ft | 15 kts | 296° |
| 2026-05-04 12:56 | 52.37436 | 13.51771 | 160 ft | 17 kts | 278° |
| 2026-05-04 12:56 | 52.37452 | 13.51575 | 160 ft | 18 kts | 273° |
| 2026-05-04 12:56 | 52.37441 | 13.51361 | 160 ft | 20 kts | 255° |
| 2026-05-04 12:57 | 52.37394 | 13.51141 | 160 ft | 27 kts | 249° |
| 2026-05-04 12:57 | 52.37228 | 13.50440 | 162 ft | 105 kts | 250° |
| 2026-05-04 12:57 | 52.36883 | 13.48985 | 328 ft | 149 kts | 250° |
| 2026-05-04 12:57 | 52.36500 | 13.47421 | 895 ft | 156 kts | 247° |
| 2026-05-04 12:58 | 52.36085 | 13.45682 | 1387 ft | 169 kts | 250° |
| 2026-05-04 12:58 | 52.35641 | 13.43803 | 1949 ft | 186 kts | 250° |
| 2026-05-04 12:58 | 52.35150 | 13.41733 | 2567 ft | 204 kts | 249° |
| 2026-05-04 12:58 | 52.34615 | 13.39483 | 3213 ft | 217 kts | 250° |
| 2026-05-04 12:59 | 52.34062 | 13.37158 | 4087 ft | 222 kts | 249° |
| 2026-05-04 12:59 | 52.33584 | 13.34772 | 4970 ft | 225 kts | 259° |
| 2026-05-04 12:59 | 52.33388 | 13.32228 | 5860 ft | 227 kts | 264° |
| 2026-05-04 12:59 | 52.33237 | 13.29614 | 6708 ft | 230 kts | 264° |
| 2026-05-04 13:00 | 52.33082 | 13.27002 | 7534 ft | 232 kts | 263° |
| 2026-05-04 13:00 | 52.32920 | 13.24363 | 8367 ft | 234 kts | 263° |
| 2026-05-04 13:00 | 52.32739 | 13.21735 | 9208 ft | 236 kts | 259° |
| 2026-05-04 13:00 | 52.32223 | 13.19161 | 9856 ft | 247 kts | 244° |
| 2026-05-04 13:01 | 52.31410 | 13.16552 | 10206 ft | 268 kts | 243° |
| 2026-05-04 13:01 | 52.30511 | 13.13728 | 10484 ft | 291 kts | 243° |
| 2026-05-04 13:01 | 52.29793 | 13.10515 | 10725 ft | 314 kts | 258° |
| 2026-05-04 13:01 | 52.29509 | 13.06853 | 10986 ft | 335 kts | 263° |
| 2026-05-04 13:02 | 52.29295 | 13.02952 | 11238 ft | 355 kts | 264° |
| 2026-05-04 13:02 | 52.29069 | 12.98861 | 11582 ft | 369 kts | 263° |
| 2026-05-04 13:02 | 52.28825 | 12.94636 | 12187 ft | 375 kts | 264° |
| 2026-05-04 13:02 | 52.28572 | 12.90375 | 12823 ft | 378 kts | 264° |
| 2026-05-04 13:03 | 52.28309 | 12.86080 | 13468 ft | 381 kts | 263° |
| 2026-05-04 13:03 | 52.28041 | 12.81751 | 14075 ft | 384 kts | 263° |
| 2026-05-04 13:03 | 52.27770 | 12.77391 | 14663 ft | 386 kts | 263° |
| 2026-05-04 13:03 | 52.27497 | 12.73018 | 15261 ft | 389 kts | 263° |
| 2026-05-04 13:04 | 52.27223 | 12.68618 | 15886 ft | 391 kts | 263° |
| 2026-05-04 13:04 | 52.26945 | 12.64188 | 16538 ft | 393 kts | 263° |
| 2026-05-04 13:04 | 52.26662 | 12.59737 | 17191 ft | 396 kts | 263° |
| 2026-05-04 13:04 | 52.26226 | 12.55339 | 17809 ft | 397 kts | 255° |
| 2026-05-04 13:05 | 52.25268 | 12.51105 | 18406 ft | 399 kts | 243° |
| 2026-05-04 13:05 | 52.23745 | 12.47297 | 18916 ft | 403 kts | 231° |
| 2026-05-04 13:05 | 52.21720 | 12.44109 | 19413 ft | 408 kts | 219° |
| 2026-05-04 13:05 | 52.19278 | 12.41673 | 19925 ft | 414 kts | 210° |
| 2026-05-04 13:06 | 52.16679 | 12.39604 | 20420 ft | 417 kts | 208° |
| 2026-05-04 13:06 | 52.14054 | 12.37552 | 20917 ft | 420 kts | 208° |
| 2026-05-04 13:06 | 52.11416 | 12.35468 | 21405 ft | 423 kts | 208° |
| 2026-05-04 13:06 | 52.08836 | 12.33149 | 21854 ft | 424 kts | 215° |
| 2026-05-04 13:07 | 52.06539 | 12.30140 | 22309 ft | 425 kts | 226° |
| 2026-05-04 13:07 | 52.04625 | 12.26481 | 22789 ft | 426 kts | 234° |
| 2026-05-04 13:07 | 52.02855 | 12.22585 | 23247 ft | 430 kts | 235° |
| 2026-05-04 13:07 | 52.01088 | 12.18658 | 23691 ft | 433 kts | 234° |
| 2026-05-04 13:08 | 51.99295 | 12.14715 | 24111 ft | 435 kts | 234° |
| 2026-05-04 13:08 | 51.97486 | 12.10770 | 24539 ft | 436 kts | 234° |
| 2026-05-04 13:08 | 51.95690 | 12.06869 | 24958 ft | 437 kts | 234° |
| 2026-05-04 13:08 | 51.93871 | 12.02932 | 25501 ft | 435 kts | 234° |
| 2026-05-04 13:09 | 51.92061 | 11.99018 | 26078 ft | 432 kts | 234° |
| 2026-05-04 13:09 | 51.90264 | 11.95131 | 26604 ft | 430 kts | 234° |
| 2026-05-04 13:09 | 51.88470 | 11.91264 | 27123 ft | 429 kts | 234° |
| 2026-05-04 13:09 | 51.86677 | 11.87412 | 27679 ft | 427 kts | 234° |
| 2026-05-04 13:10 | 51.84896 | 11.83585 | 28231 ft | 424 kts | 234° |
| 2026-05-04 13:10 | 51.83113 | 11.79790 | 28790 ft | 422 kts | 233° |
| 2026-05-04 13:10 | 51.81333 | 11.76041 | 29346 ft | 419 kts | 233° |
| 2026-05-04 13:10 | 51.79560 | 11.72316 | 29892 ft | 416 kts | 233° |
| 2026-05-04 13:11 | 51.77801 | 11.68618 | 30384 ft | 413 kts | 233° |
| 2026-05-04 13:11 | 51.76054 | 11.64946 | 30810 ft | 411 kts | 233° |
| 2026-05-04 13:11 | 51.74314 | 11.61294 | 31207 ft | 410 kts | 233° |
| 2026-05-04 13:11 | 51.72599 | 11.57702 | 31567 ft | 409 kts | 233° |
| 2026-05-04 13:12 | 51.70868 | 11.54081 | 31882 ft | 408 kts | 233° |
| 2026-05-04 13:12 | 51.69132 | 11.50448 | 32149 ft | 409 kts | 233° |
| 2026-05-04 13:12 | 51.67390 | 11.46809 | 32460 ft | 409 kts | 233° |
| 2026-05-04 13:12 | 51.65648 | 11.43177 | 32794 ft | 408 kts | 233° |
| 2026-05-04 13:13 | 51.63914 | 11.39564 | 33128 ft | 407 kts | 233° |
| 2026-05-04 13:13 | 51.62182 | 11.35960 | 33460 ft | 406 kts | 233° |
| 2026-05-04 13:13 | 51.60451 | 11.32362 | 33774 ft | 405 kts | 233° |
| 2026-05-04 13:13 | 51.58727 | 11.28785 | 34059 ft | 405 kts | 233° |
| 2026-05-04 13:14 | 51.56997 | 11.25203 | 34288 ft | 404 kts | 233° |
| 2026-05-04 13:14 | 51.55294 | 11.21686 | 34490 ft | 404 kts | 233° |
| 2026-05-04 13:14 | 51.53567 | 11.18122 | 34714 ft | 404 kts | 233° |
| 2026-05-04 13:14 | 51.51764 | 11.14652 | 34925 ft | 405 kts | 228° |
| 2026-05-04 13:15 | 51.49636 | 11.11647 | 34984 ft | 410 kts | 218° |
| 2026-05-04 13:15 | 51.47158 | 11.09347 | 34997 ft | 414 kts | 207° |
| 2026-05-04 13:15 | 51.44416 | 11.07879 | 34982 ft | 418 kts | 197° |
| 2026-05-04 13:16 | 51.38558 | 11.07067 | 34953 ft | 425 kts | 186° |
| 2026-05-04 13:16 | 51.32641 | 11.06714 | 34963 ft | 425 kts | 187° |
| 2026-05-04 13:17 | 51.26767 | 11.06282 | 34961 ft | 425 kts | 187° |
| 2026-05-04 13:17 | 51.20847 | 11.05821 | 34975 ft | 426 kts | 187° |
| 2026-05-04 13:18 | 51.14925 | 11.05358 | 34983 ft | 425 kts | 187° |
| 2026-05-04 13:18 | 51.09007 | 11.04900 | 34990 ft | 425 kts | 187° |
| 2026-05-04 13:19 | 51.03095 | 11.04441 | 34984 ft | 426 kts | 187° |
| 2026-05-04 13:19 | 50.97206 | 11.03985 | 34994 ft | 426 kts | 187° |
| 2026-05-04 13:20 | 50.91279 | 11.03531 | 34992 ft | 426 kts | 187° |
| 2026-05-04 13:20 | 50.85351 | 11.03077 | 34988 ft | 426 kts | 187° |
| 2026-05-04 13:21 | 50.79419 | 11.02623 | 34979 ft | 426 kts | 187° |
| 2026-05-04 13:21 | 50.73491 | 11.02169 | 34985 ft | 426 kts | 187° |
| 2026-05-04 13:22 | 50.67601 | 11.01310 | 34992 ft | 424 kts | 190° |
| 2026-05-04 13:22 | 50.61726 | 11.00255 | 34980 ft | 425 kts | 190° |
| 2026-05-04 13:23 | 50.55891 | 10.99222 | 34976 ft | 425 kts | 190° |
| 2026-05-04 13:23 | 50.50011 | 10.98188 | 34974 ft | 425 kts | 190° |
| 2026-05-04 13:24 | 50.44126 | 10.97161 | 34978 ft | 425 kts | 190° |
| 2026-05-04 13:24 | 50.38250 | 10.96129 | 34982 ft | 425 kts | 190° |
| 2026-05-04 13:25 | 50.29419 | 10.94585 | 34982 ft | 426 kts | 190° |
| 2026-05-04 13:25 | 50.23562 | 10.93568 | 34980 ft | 426 kts | 190° |
| 2026-05-04 13:26 | 50.17670 | 10.92550 | 34980 ft | 426 kts | 190° |
| 2026-05-04 13:26 | 50.11775 | 10.91530 | 34968 ft | 426 kts | 190° |
| 2026-05-04 13:27 | 50.05866 | 10.90510 | 34976 ft | 426 kts | 190° |
| 2026-05-04 13:27 | 49.99962 | 10.89491 | 34975 ft | 427 kts | 190° |
| 2026-05-04 13:28 | 49.94061 | 10.88478 | 34980 ft | 427 kts | 190° |
| 2026-05-04 13:28 | 49.88198 | 10.87472 | 34973 ft | 426 kts | 190° |
| 2026-05-04 13:29 | 49.82300 | 10.86468 | 34982 ft | 426 kts | 190° |
| 2026-05-04 13:29 | 49.76400 | 10.85460 | 34980 ft | 426 kts | 190° |
| 2026-05-04 13:30 | 49.70502 | 10.84458 | 34981 ft | 426 kts | 190° |
| 2026-05-04 13:30 | 49.64600 | 10.83457 | 34979 ft | 426 kts | 190° |
| 2026-05-04 13:31 | 49.58746 | 10.82466 | 34986 ft | 427 kts | 190° |
| 2026-05-04 13:31 | 49.52914 | 10.80907 | 34979 ft | 422 kts | 201° |
| 2026-05-04 13:32 | 49.50270 | 10.79078 | 34987 ft | 417 kts | 213° |
| 2026-05-04 13:32 | 49.47915 | 10.76454 | 34989 ft | 414 kts | 224° |
| 2026-05-04 13:32 | 49.43879 | 10.70133 | 34997 ft | 414 kts | 227° |
| 2026-05-04 13:33 | 49.39895 | 10.63744 | 34999 ft | 414 kts | 228° |
| 2026-05-04 13:33 | 49.35942 | 10.57306 | 34999 ft | 414 kts | 228° |
| 2026-05-04 13:34 | 49.31903 | 10.50999 | 34997 ft | 414 kts | 226° |
| 2026-05-04 13:34 | 49.27836 | 10.44779 | 34570 ft | 411 kts | 226° |
| 2026-05-04 13:35 | 49.25808 | 10.41678 | 34283 ft | 413 kts | 226° |
| 2026-05-04 13:35 | 49.22422 | 10.36501 | 33985 ft | 415 kts | 226° |
| 2026-05-04 13:36 | 49.18364 | 10.30191 | 33987 ft | 416 kts | 227° |
| 2026-05-04 13:36 | 49.14344 | 10.23888 | 33996 ft | 416 kts | 229° |
| 2026-05-04 13:37 | 49.10685 | 10.17071 | 33831 ft | 413 kts | 232° |
| 2026-05-04 13:37 | 49.08891 | 10.13662 | 33587 ft | 412 kts | 232° |
| 2026-05-04 13:37 | 49.07092 | 10.10241 | 33305 ft | 414 kts | 232° |
| 2026-05-04 13:37 | 49.05286 | 10.06818 | 33039 ft | 415 kts | 231° |
| 2026-05-04 13:38 | 49.03466 | 10.03381 | 32965 ft | 417 kts | 231° |
| 2026-05-04 13:38 | 48.99819 | 9.96505 | 32809 ft | 417 kts | 231° |
| 2026-05-04 13:38 | 48.97991 | 9.93063 | 32576 ft | 417 kts | 231° |
| 2026-05-04 13:39 | 48.96162 | 9.89626 | 32322 ft | 417 kts | 231° |
| 2026-05-04 13:39 | 48.94334 | 9.86191 | 32067 ft | 418 kts | 231° |
| 2026-05-04 13:39 | 48.92499 | 9.82751 | 31807 ft | 419 kts | 231° |
| 2026-05-04 13:39 | 48.90656 | 9.79304 | 31556 ft | 420 kts | 231° |
| 2026-05-04 13:40 | 48.88838 | 9.75908 | 31304 ft | 421 kts | 231° |
| 2026-05-04 13:40 | 48.86990 | 9.72455 | 31045 ft | 422 kts | 231° |
| 2026-05-04 13:40 | 48.85129 | 9.68984 | 30793 ft | 423 kts | 231° |
| 2026-05-04 13:40 | 48.83270 | 9.65524 | 30555 ft | 423 kts | 231° |
| 2026-05-04 13:41 | 48.81409 | 9.62065 | 30316 ft | 422 kts | 231° |
| 2026-05-04 13:41 | 48.79552 | 9.58617 | 30068 ft | 422 kts | 230° |
| 2026-05-04 13:41 | 48.77694 | 9.55174 | 29785 ft | 423 kts | 230° |
| 2026-05-04 13:42 | 48.73951 | 9.48247 | 29232 ft | 425 kts | 230° |
| 2026-05-04 13:42 | 48.72070 | 9.44775 | 28991 ft | 427 kts | 230° |
| 2026-05-04 13:42 | 48.68294 | 9.37808 | 28945 ft | 429 kts | 230° |
| 2026-05-04 13:43 | 48.64496 | 9.30835 | 28962 ft | 429 kts | 230° |
| 2026-05-04 13:43 | 48.60417 | 9.24252 | 28962 ft | 429 kts | 219° |
| 2026-05-04 13:44 | 48.58053 | 9.21551 | 28466 ft | 423 kts | 217° |
| 2026-05-04 13:44 | 48.55653 | 9.18925 | 27232 ft | 428 kts | 216° |
| 2026-05-04 13:44 | 48.53240 | 9.16282 | 26199 ft | 431 kts | 217° |
| 2026-05-04 13:44 | 48.50811 | 9.13597 | 25270 ft | 432 kts | 217° |
| 2026-05-04 13:45 | 48.48433 | 9.10952 | 24489 ft | 430 kts | 217° |
| 2026-05-04 13:45 | 48.46033 | 9.08285 | 23733 ft | 427 kts | 216° |
| 2026-05-04 13:45 | 48.43645 | 9.05631 | 22870 ft | 425 kts | 216° |
| 2026-05-04 13:45 | 48.41267 | 9.02991 | 22112 ft | 421 kts | 216° |
| 2026-05-04 13:46 | 48.38910 | 9.00375 | 21402 ft | 420 kts | 216° |
| 2026-05-04 13:46 | 48.36568 | 8.97777 | 20631 ft | 415 kts | 216° |
| 2026-05-04 13:46 | 48.34261 | 8.95219 | 19895 ft | 409 kts | 216° |
| 2026-05-04 13:46 | 48.31978 | 8.92696 | 19185 ft | 404 kts | 216° |
| 2026-05-04 13:47 | 48.29722 | 8.90200 | 18495 ft | 400 kts | 216° |
| 2026-05-04 13:47 | 48.27491 | 8.87715 | 17747 ft | 398 kts | 216° |
| 2026-05-04 13:47 | 48.25280 | 8.85246 | 17064 ft | 394 kts | 216° |
| 2026-05-04 13:47 | 48.23118 | 8.82839 | 16450 ft | 390 kts | 216° |
| 2026-05-04 13:48 | 48.20947 | 8.80427 | 15870 ft | 386 kts | 216° |
| 2026-05-04 13:48 | 48.18786 | 8.78032 | 15278 ft | 387 kts | 217° |
| 2026-05-04 13:48 | 48.16631 | 8.75652 | 14680 ft | 383 kts | 216° |
| 2026-05-04 13:48 | 48.14451 | 8.73275 | 14097 ft | 380 kts | 216° |
| 2026-05-04 13:49 | 48.12351 | 8.70991 | 13486 ft | 378 kts | 216° |
| 2026-05-04 13:49 | 48.10229 | 8.68683 | 12812 ft | 375 kts | 216° |
| 2026-05-04 13:49 | 48.08119 | 8.66388 | 12201 ft | 373 kts | 216° |
| 2026-05-04 13:49 | 48.06047 | 8.64136 | 11736 ft | 361 kts | 216° |
| 2026-05-04 13:50 | 48.04057 | 8.61975 | 11493 ft | 344 kts | 216° |
| 2026-05-04 13:50 | 48.02174 | 8.59933 | 11218 ft | 324 kts | 216° |
| 2026-05-04 13:50 | 48.00404 | 8.58011 | 10874 ft | 305 kts | 216° |
| 2026-05-04 13:50 | 47.98736 | 8.56199 | 10567 ft | 289 kts | 216° |
| 2026-05-04 13:51 | 47.97147 | 8.54474 | 10299 ft | 274 kts | 216° |
| 2026-05-04 13:51 | 47.95647 | 8.52848 | 10108 ft | 267 kts | 216° |
| 2026-05-04 13:51 | 47.94039 | 8.51380 | 9863 ft | 271 kts | 203° |
| 2026-05-04 13:51 | 47.92241 | 8.50635 | 9485 ft | 267 kts | 193° |
| 2026-05-04 13:52 | 47.88578 | 8.49584 | 8710 ft | 267 kts | 191° |
| 2026-05-04 13:52 | 47.86762 | 8.49056 | 8346 ft | 266 kts | 192° |
| 2026-05-04 13:52 | 47.84939 | 8.48516 | 7997 ft | 266 kts | 192° |
| 2026-05-04 13:53 | 47.83154 | 8.47984 | 7661 ft | 265 kts | 192° |
| 2026-05-04 13:53 | 47.81321 | 8.47436 | 7336 ft | 264 kts | 192° |
| 2026-05-04 13:53 | 47.79497 | 8.46890 | 7032 ft | 269 kts | 191° |
| 2026-05-04 13:54 | 47.76017 | 8.45867 | 6866 ft | 241 kts | 191° |
| 2026-05-04 13:54 | 47.74429 | 8.45399 | 6669 ft | 231 kts | 191° |
| 2026-05-04 13:54 | 47.71302 | 8.44465 | 5982 ft | 229 kts | 191° |
| 2026-05-04 13:55 | 47.69750 | 8.43950 | 5661 ft | 228 kts | 197° |
| 2026-05-04 13:55 | 47.67258 | 8.41177 | 5026 ft | 229 kts | 227° |
| 2026-05-04 13:55 | 47.66189 | 8.39411 | 4729 ft | 231 kts | 227° |
| 2026-05-04 13:56 | 47.65116 | 8.37656 | 4513 ft | 227 kts | 226° |
| 2026-05-04 13:56 | 47.64027 | 8.36100 | 4504 ft | 215 kts | 212° |
| 2026-05-04 13:56 | 47.61457 | 8.35444 | 4153 ft | 188 kts | 150° |
| 2026-05-04 13:57 | 47.60452 | 8.36589 | 4037 ft | 174 kts | 136° |
| 2026-05-04 13:57 | 47.59639 | 8.37823 | 3930 ft | 165 kts | 134° |
| 2026-05-04 13:58 | 47.57186 | 8.41359 | 3787 ft | 154 kts | 136° |
| 2026-05-04 13:58 | 47.55650 | 8.43461 | 3395 ft | 149 kts | 137° |
| 2026-05-04 13:58 | 47.54886 | 8.44506 | 3187 ft | 149 kts | 137° |
| 2026-05-04 13:59 | 47.54136 | 8.45529 | 2990 ft | 148 kts | 137° |
| 2026-05-04 13:59 | 47.53383 | 8.46558 | 2789 ft | 145 kts | 138° |
| 2026-05-04 13:59 | 47.51913 | 8.48564 | 2418 ft | 143 kts | 138° |
| 2026-05-04 14:00 | 47.51183 | 8.49561 | 2221 ft | 142 kts | 137° |
| 2026-05-04 14:00 | 47.49724 | 8.51535 | 1837 ft | 142 kts | 136° |
| 2026-05-04 14:00 | 47.49001 | 8.52531 | 1666 ft | 142 kts | 135° |
| 2026-05-04 14:01 | 47.48281 | 8.53513 | 1480 ft | 140 kts | 135° |
| 2026-05-04 14:01 | 47.47633 | 8.54396 | 1406 ft | 110 kts | 136° |
| 2026-05-04 14:01 | 47.46949 | 8.55331 | 1403 ft | 48 kts | 137° |
| 2026-05-04 14:02 | 47.46765 | 8.55569 | 1399 ft | 21 kts | 148° |
| 2026-05-04 14:02 | 47.46632 | 8.55665 | 1400 ft | 22 kts | 163° |
| 2026-05-04 14:02 | 47.46475 | 8.55719 | 1403 ft | 21 kts | 167° |
| 2026-05-04 14:02 | 47.46373 | 8.55772 | 1408 ft | 16 kts | 145° |
| 2026-05-04 14:03 | 47.46284 | 8.55894 | 1407 ft | 19 kts | 137° |
| 2026-05-04 14:03 | 47.46174 | 8.56005 | 1414 ft | 19 kts | 188° |
| 2026-05-04 14:03 | 47.46059 | 8.55985 | 1412 ft | 15 kts | 185° |
| 2026-05-04 14:03 | 47.45956 | 8.55963 | 1412 ft | 16 kts | 197° |
| 2026-05-04 14:04 | 47.45753 | 8.55873 | 1416 ft | 15 kts | 187° |
| 2026-05-04 14:04 | 47.45686 | 8.55862 | 1418 ft | 9 kts | 185° |
| 2026-05-04 14:04 | 47.45619 | 8.55853 | 1414 ft | 11 kts | 185° |
| 2026-05-04 14:05 | 47.45471 | 8.55810 | 1412 ft | 8 kts | 185° |
| 2026-05-04 14:05 | 47.45429 | 8.55804 | 1412 ft | 0 kts | 188° |
| 2026-05-04 14:05 | 47.45426 | 8.55803 | 1412 ft | 0 kts | 186° |